sensor_id;sensor_type;location;lat;lon;timestamp;P1;durP1;ratioP1;P2;durP2;ratioP2
11964;SDS011;6042;41.326;19.826;2023-04-24T00:01:46;6.80;;;6.10;;
11964;SDS011;6042;41.326;19.826;2023-04-24T00:04:15;7.53;;;6.93;;
11964;SDS011;6042;41.326;19.826;2023-04-24T00:06:45;7.40;;;6.70;;
11964;SDS011;6042;41.326;19.826;2023-04-24T00:09:16;7.03;;;6.33;;
11964;SDS011;6042;41.326;19.826;2023-04-24T00:11:44;7.57;;;6.77;;
11964;SDS011;6042;41.326;19.826;2023-04-24T00:14:13;7.73;;;6.50;;
11964;SDS011;6042;41.326;19.826;2023-04-24T00:16:41;7.07;;;6.43;;
11964;SDS011;6042;41.326;19.826;2023-04-24T00:19:09;7.00;;;6.37;;
11964;SDS011;6042;41.326;19.826;2023-04-24T00:21:39;8.07;;;7.27;;
11964;SDS011;6042;41.326;19.826;2023-04-24T00:24:09;7.80;;;6.90;;
11964;SDS011;6042;41.326;19.826;2023-04-24T00:26:38;7.73;;;6.80;;
11964;SDS011;6042;41.326;19.826;2023-04-24T00:29:06;8.53;;;6.80;;
11964;SDS011;6042;41.326;19.826;2023-04-24T00:31:35;8.13;;;7.33;;
11964;SDS011;6042;41.326;19.826;2023-04-24T00:34:03;6.87;;;6.17;;
11964;SDS011;6042;41.326;19.826;2023-04-24T00:36:32;8.17;;;7.03;;
11964;SDS011;6042;41.326;19.826;2023-04-24T00:39:01;8.03;;;6.90;;
11964;SDS011;6042;41.326;19.826;2023-04-24T00:41:31;7.27;;;6.27;;
11964;SDS011;6042;41.326;19.826;2023-04-24T00:44:00;7.43;;;6.73;;
11964;SDS011;6042;41.326;19.826;2023-04-24T00:46:29;6.80;;;6.10;;
11964;SDS011;6042;41.326;19.826;2023-04-24T00:48:58;8.07;;;6.20;;
11964;SDS011;6042;41.326;19.826;2023-04-24T00:51:27;7.23;;;6.53;;
11964;SDS011;6042;41.326;19.826;2023-04-24T00:53:58;7.20;;;6.50;;
11964;SDS011;6042;41.326;19.826;2023-04-24T00:56:27;7.03;;;6.23;;
11964;SDS011;6042;41.326;19.826;2023-04-24T00:58:59;7.63;;;6.20;;
11964;SDS011;6042;41.326;19.826;2023-04-24T01:01:28;6.93;;;6.27;;
11964;SDS011;6042;41.326;19.826;2023-04-24T01:03:56;6.47;;;5.90;;
11964;SDS011;6042;41.326;19.826;2023-04-24T01:06:27;6.63;;;5.93;;
11964;SDS011;6042;41.326;19.826;2023-04-24T01:08:57;8.40;;;6.50;;
11964;SDS011;6042;41.326;19.826;2023-04-24T01:11:29;6.40;;;5.87;;
11964;SDS011;6042;41.326;19.826;2023-04-24T01:13:59;6.67;;;5.97;;
11964;SDS011;6042;41.326;19.826;2023-04-24T01:16:29;7.03;;;6.43;;
11964;SDS011;6042;41.326;19.826;2023-04-24T01:18:57;6.40;;;5.80;;
11964;SDS011;6042;41.326;19.826;2023-04-24T01:21:26;7.23;;;6.37;;
11964;SDS011;6042;41.326;19.826;2023-04-24T01:23:58;7.07;;;6.13;;
11964;SDS011;6042;41.326;19.826;2023-04-24T01:26:26;8.37;;;6.30;;
11964;SDS011;6042;41.326;19.826;2023-04-24T01:28:54;9.17;;;5.90;;
11964;SDS011;6042;41.326;19.826;2023-04-24T01:31:24;6.13;;;5.53;;
11964;SDS011;6042;41.326;19.826;2023-04-24T01:33:52;9.90;;;6.10;;
11964;SDS011;6042;41.326;19.826;2023-04-24T01:36:22;7.03;;;6.20;;
11964;SDS011;6042;41.326;19.826;2023-04-24T01:38:53;6.87;;;5.97;;
11964;SDS011;6042;41.326;19.826;2023-04-24T01:41:26;8.73;;;5.93;;
11964;SDS011;6042;41.326;19.826;2023-04-24T01:43:55;6.53;;;5.73;;
11964;SDS011;6042;41.326;19.826;2023-04-24T01:46:24;6.50;;;5.90;;
11964;SDS011;6042;41.326;19.826;2023-04-24T01:48:53;5.93;;;5.33;;
11964;SDS011;6042;41.326;19.826;2023-04-24T01:51:22;6.77;;;6.10;;
11964;SDS011;6042;41.326;19.826;2023-04-24T01:53:51;7.03;;;6.17;;
11964;SDS011;6042;41.326;19.826;2023-04-24T01:56:19;5.90;;;5.40;;
11964;SDS011;6042;41.326;19.826;2023-04-24T01:58:50;5.80;;;5.27;;
11964;SDS011;6042;41.326;19.826;2023-04-24T02:01:21;7.80;;;6.00;;
11964;SDS011;6042;41.326;19.826;2023-04-24T02:03:51;8.57;;;5.80;;
11964;SDS011;6042;41.326;19.826;2023-04-24T02:06:20;6.20;;;5.70;;
11964;SDS011;6042;41.326;19.826;2023-04-24T02:08:48;6.50;;;5.90;;
11964;SDS011;6042;41.326;19.826;2023-04-24T02:11:17;6.00;;;5.50;;
11964;SDS011;6042;41.326;19.826;2023-04-24T02:13:45;7.27;;;6.13;;
11964;SDS011;6042;41.326;19.826;2023-04-24T02:16:15;6.30;;;5.70;;
11964;SDS011;6042;41.326;19.826;2023-04-24T02:18:44;6.33;;;5.73;;
11964;SDS011;6042;41.326;19.826;2023-04-24T02:21:12;6.10;;;5.57;;
11964;SDS011;6042;41.326;19.826;2023-04-24T02:23:41;6.73;;;5.87;;
11964;SDS011;6042;41.326;19.826;2023-04-24T02:26:11;6.30;;;5.70;;
11964;SDS011;6042;41.326;19.826;2023-04-24T02:28:40;7.30;;;5.53;;
11964;SDS011;6042;41.326;19.826;2023-04-24T02:31:09;7.47;;;5.63;;
11964;SDS011;6042;41.326;19.826;2023-04-24T02:33:41;7.00;;;5.80;;
11964;SDS011;6042;41.326;19.826;2023-04-24T02:36:09;7.07;;;5.83;;
11964;SDS011;6042;41.326;19.826;2023-04-24T02:38:38;6.67;;;6.07;;
11964;SDS011;6042;41.326;19.826;2023-04-24T02:41:06;7.43;;;5.57;;
11964;SDS011;6042;41.326;19.826;2023-04-24T02:43:34;6.77;;;5.43;;
11964;SDS011;6042;41.326;19.826;2023-04-24T02:46:03;6.07;;;5.27;;
11964;SDS011;6042;41.326;19.826;2023-04-24T02:48:31;5.90;;;5.20;;
11964;SDS011;6042;41.326;19.826;2023-04-24T02:51:03;6.13;;;5.57;;
11964;SDS011;6042;41.326;19.826;2023-04-24T02:53:31;7.90;;;6.17;;
11964;SDS011;6042;41.326;19.826;2023-04-24T02:56:00;6.20;;;5.40;;
11964;SDS011;6042;41.326;19.826;2023-04-24T02:58:28;6.47;;;5.60;;
11964;SDS011;6042;41.326;19.826;2023-04-24T03:00:56;6.93;;;5.93;;
11964;SDS011;6042;41.326;19.826;2023-04-24T03:03:25;6.03;;;5.53;;
11964;SDS011;6042;41.326;19.826;2023-04-24T03:05:55;6.20;;;5.70;;
11964;SDS011;6042;41.326;19.826;2023-04-24T03:08:24;6.33;;;5.33;;
11964;SDS011;6042;41.326;19.826;2023-04-24T03:10:53;5.97;;;5.37;;
11964;SDS011;6042;41.326;19.826;2023-04-24T03:13:21;5.97;;;5.43;;
11964;SDS011;6042;41.326;19.826;2023-04-24T03:15:50;6.87;;;5.80;;
11964;SDS011;6042;41.326;19.826;2023-04-24T03:18:19;6.10;;;5.50;;
11964;SDS011;6042;41.326;19.826;2023-04-24T03:20:50;6.27;;;5.67;;
11964;SDS011;6042;41.326;19.826;2023-04-24T03:23:21;5.63;;;4.83;;
11964;SDS011;6042;41.326;19.826;2023-04-24T03:25:51;7.73;;;6.03;;
11964;SDS011;6042;41.326;19.826;2023-04-24T03:28:19;6.23;;;5.70;;
11964;SDS011;6042;41.326;19.826;2023-04-24T03:30:54;5.83;;;5.37;;
11964;SDS011;6042;41.326;19.826;2023-04-24T03:33:24;5.77;;;5.27;;
11964;SDS011;6042;41.326;19.826;2023-04-24T03:35:59;6.10;;;5.50;;
11964;SDS011;6042;41.326;19.826;2023-04-24T03:38:35;7.37;;;5.93;;
11964;SDS011;6042;41.326;19.826;2023-04-24T03:41:20;5.90;;;5.40;;
11964;SDS011;6042;41.326;19.826;2023-04-24T03:43:54;6.43;;;5.70;;
11964;SDS011;6042;41.326;19.826;2023-04-24T03:46:24;6.53;;;5.10;;
11964;SDS011;6042;41.326;19.826;2023-04-24T03:48:56;6.90;;;6.00;;
11964;SDS011;6042;41.326;19.826;2023-04-24T03:51:29;7.00;;;5.70;;
11964;SDS011;6042;41.326;19.826;2023-04-24T03:54:09;6.43;;;5.13;;
11964;SDS011;6042;41.326;19.826;2023-04-24T03:56:40;5.77;;;5.27;;
11964;SDS011;6042;41.326;19.826;2023-04-24T03:59:08;5.97;;;5.27;;
11964;SDS011;6042;41.326;19.826;2023-04-24T04:01:39;5.87;;;5.30;;
11964;SDS011;6042;41.326;19.826;2023-04-24T04:04:16;5.87;;;5.37;;
11964;SDS011;6042;41.326;19.826;2023-04-24T04:06:45;5.67;;;5.03;;
11964;SDS011;6042;41.326;19.826;2023-04-24T04:09:14;6.80;;;5.70;;
11964;SDS011;6042;41.326;19.826;2023-04-24T04:11:44;6.00;;;4.87;;
11964;SDS011;6042;41.326;19.826;2023-04-24T04:14:12;5.67;;;5.10;;
11964;SDS011;6042;41.326;19.826;2023-04-24T04:16:45;7.23;;;5.30;;
11964;SDS011;6042;41.326;19.826;2023-04-24T04:19:14;6.17;;;5.27;;
11964;SDS011;6042;41.326;19.826;2023-04-24T04:21:43;6.53;;;5.33;;
11964;SDS011;6042;41.326;19.826;2023-04-24T04:24:30;7.07;;;5.33;;
11964;SDS011;6042;41.326;19.826;2023-04-24T04:27:01;6.10;;;5.03;;
11964;SDS011;6042;41.326;19.826;2023-04-24T04:29:37;5.77;;;5.27;;
11964;SDS011;6042;41.326;19.826;2023-04-24T04:32:10;7.73;;;5.60;;
11964;SDS011;6042;41.326;19.826;2023-04-24T04:34:39;8.53;;;5.53;;
11964;SDS011;6042;41.326;19.826;2023-04-24T04:37:10;6.20;;;5.53;;
11964;SDS011;6042;41.326;19.826;2023-04-24T04:39:52;8.37;;;5.37;;
11964;SDS011;6042;41.326;19.826;2023-04-24T04:42:25;7.00;;;5.70;;
11964;SDS011;6042;41.326;19.826;2023-04-24T04:44:55;6.63;;;5.90;;
11964;SDS011;6042;41.326;19.826;2023-04-24T04:47:33;5.70;;;5.13;;
11964;SDS011;6042;41.326;19.826;2023-04-24T04:50:03;5.83;;;5.23;;
11964;SDS011;6042;41.326;19.826;2023-04-24T04:52:32;7.17;;;5.50;;
11964;SDS011;6042;41.326;19.826;2023-04-24T04:55:12;5.80;;;5.30;;
11964;SDS011;6042;41.326;19.826;2023-04-24T04:58:09;8.93;;;5.63;;
11964;SDS011;6042;41.326;19.826;2023-04-24T05:00:37;8.93;;;5.10;;
11964;SDS011;6042;41.326;19.826;2023-04-24T05:03:15;5.53;;;4.37;;
11964;SDS011;6042;41.326;19.826;2023-04-24T05:05:52;5.60;;;5.10;;
11964;SDS011;6042;41.326;19.826;2023-04-24T05:08:22;5.67;;;5.10;;
11964;SDS011;6042;41.326;19.826;2023-04-24T05:10:54;5.70;;;5.23;;
11964;SDS011;6042;41.326;19.826;2023-04-24T05:13:26;8.10;;;5.03;;
11964;SDS011;6042;41.326;19.826;2023-04-24T05:16:33;7.90;;;5.17;;
11964;SDS011;6042;41.326;19.826;2023-04-24T05:19:01;8.23;;;5.07;;
11964;SDS011;6042;41.326;19.826;2023-04-24T05:21:35;5.53;;;4.87;;
11964;SDS011;6042;41.326;19.826;2023-04-24T05:24:03;5.40;;;4.87;;
11964;SDS011;6042;41.326;19.826;2023-04-24T05:26:45;5.73;;;5.10;;
11964;SDS011;6042;41.326;19.826;2023-04-24T05:29:18;7.23;;;5.07;;
11964;SDS011;6042;41.326;19.826;2023-04-24T05:31:47;5.20;;;4.70;;
11964;SDS011;6042;41.326;19.826;2023-04-24T05:34:16;6.53;;;4.87;;
11964;SDS011;6042;41.326;19.826;2023-04-24T05:36:49;7.93;;;4.70;;
11964;SDS011;6042;41.326;19.826;2023-04-24T05:39:18;9.40;;;5.20;;
11964;SDS011;6042;41.326;19.826;2023-04-24T05:41:47;5.77;;;4.77;;
11964;SDS011;6042;41.326;19.826;2023-04-24T05:44:15;7.10;;;4.67;;
11964;SDS011;6042;41.326;19.826;2023-04-24T05:46:45;6.53;;;4.73;;
11964;SDS011;6042;41.326;19.826;2023-04-24T05:49:15;4.57;;;4.17;;
11964;SDS011;6042;41.326;19.826;2023-04-24T05:51:44;12.60;;;4.57;;
11964;SDS011;6042;41.326;19.826;2023-04-24T05:54:13;5.97;;;4.70;;
11964;SDS011;6042;41.326;19.826;2023-04-24T05:56:41;10.37;;;5.00;;
11964;SDS011;6042;41.326;19.826;2023-04-24T05:59:20;5.37;;;4.60;;
11964;SDS011;6042;41.326;19.826;2023-04-24T06:01:51;8.83;;;5.13;;
11964;SDS011;6042;41.326;19.826;2023-04-24T06:04:21;5.97;;;4.87;;
11964;SDS011;6042;41.326;19.826;2023-04-24T06:06:52;5.30;;;4.60;;
11964;SDS011;6042;41.326;19.826;2023-04-24T06:09:22;11.80;;;5.43;;
11964;SDS011;6042;41.326;19.826;2023-04-24T06:11:51;7.83;;;5.10;;
11964;SDS011;6042;41.326;19.826;2023-04-24T06:14:24;6.40;;;4.27;;
11964;SDS011;6042;41.326;19.826;2023-04-24T06:17:17;10.80;;;4.43;;
11964;SDS011;6042;41.326;19.826;2023-04-24T06:19:47;7.97;;;4.70;;
11964;SDS011;6042;41.326;19.826;2023-04-24T06:22:16;9.40;;;4.43;;
11964;SDS011;6042;41.326;19.826;2023-04-24T06:24:45;6.93;;;3.90;;
11964;SDS011;6042;41.326;19.826;2023-04-24T06:27:14;4.57;;;3.83;;
11964;SDS011;6042;41.326;19.826;2023-04-24T06:29:44;8.37;;;5.27;;
11964;SDS011;6042;41.326;19.826;2023-04-24T06:32:20;6.23;;;4.03;;
11964;SDS011;6042;41.326;19.826;2023-04-24T06:34:50;5.13;;;3.97;;
11964;SDS011;6042;41.326;19.826;2023-04-24T06:37:19;5.30;;;4.17;;
11964;SDS011;6042;41.326;19.826;2023-04-24T06:39:48;4.00;;;3.70;;
11964;SDS011;6042;41.326;19.826;2023-04-24T06:42:16;6.50;;;4.23;;
11964;SDS011;6042;41.326;19.826;2023-04-24T06:44:50;6.90;;;4.03;;
11964;SDS011;6042;41.326;19.826;2023-04-24T06:47:19;7.13;;;4.43;;
11964;SDS011;6042;41.326;19.826;2023-04-24T06:49:48;4.87;;;3.70;;
11964;SDS011;6042;41.326;19.826;2023-04-24T06:52:18;5.10;;;4.47;;
11964;SDS011;6042;41.326;19.826;2023-04-24T06:54:46;6.57;;;4.33;;
11964;SDS011;6042;41.326;19.826;2023-04-24T06:57:15;8.27;;;4.60;;
11964;SDS011;6042;41.326;19.826;2023-04-24T06:59:43;7.63;;;5.37;;
11964;SDS011;6042;41.326;19.826;2023-04-24T07:02:13;7.50;;;4.07;;
11964;SDS011;6042;41.326;19.826;2023-04-24T07:04:42;9.47;;;4.63;;
11964;SDS011;6042;41.326;19.826;2023-04-24T07:07:11;26.57;;;5.57;;
11964;SDS011;6042;41.326;19.826;2023-04-24T07:09:40;22.83;;;4.87;;
11964;SDS011;6042;41.326;19.826;2023-04-24T07:12:11;34.53;;;5.70;;
11964;SDS011;6042;41.326;19.826;2023-04-24T07:14:39;16.77;;;5.40;;
11964;SDS011;6042;41.326;19.826;2023-04-24T07:17:08;9.10;;;4.50;;
11964;SDS011;6042;41.326;19.826;2023-04-24T07:19:38;11.20;;;4.17;;
11964;SDS011;6042;41.326;19.826;2023-04-24T07:22:07;6.50;;;3.80;;
11964;SDS011;6042;41.326;19.826;2023-04-24T07:24:35;8.17;;;4.23;;
11964;SDS011;6042;41.326;19.826;2023-04-24T07:27:04;10.27;;;5.23;;
11964;SDS011;6042;41.326;19.826;2023-04-24T07:29:33;6.50;;;5.17;;
11964;SDS011;6042;41.326;19.826;2023-04-24T07:32:02;10.20;;;5.23;;
11964;SDS011;6042;41.326;19.826;2023-04-24T07:34:30;8.73;;;4.57;;
11964;SDS011;6042;41.326;19.826;2023-04-24T07:37:00;13.10;;;5.97;;
11964;SDS011;6042;41.326;19.826;2023-04-24T07:39:29;9.50;;;5.50;;
11964;SDS011;6042;41.326;19.826;2023-04-24T07:41:58;11.80;;;8.07;;
11964;SDS011;6042;41.326;19.826;2023-04-24T07:44:28;17.77;;;8.10;;
11964;SDS011;6042;41.326;19.826;2023-04-24T07:46:58;9.07;;;5.53;;
11964;SDS011;6042;41.326;19.826;2023-04-24T07:49:26;8.13;;;4.07;;
11964;SDS011;6042;41.326;19.826;2023-04-24T07:51:55;14.80;;;5.13;;
11964;SDS011;6042;41.326;19.826;2023-04-24T07:54:25;10.97;;;4.60;;
11964;SDS011;6042;41.326;19.826;2023-04-24T07:56:53;7.27;;;4.20;;
11964;SDS011;6042;41.326;19.826;2023-04-24T07:59:21;6.30;;;3.20;;
11964;SDS011;6042;41.326;19.826;2023-04-24T08:01:50;5.40;;;3.47;;
11964;SDS011;6042;41.326;19.826;2023-04-24T08:04:18;5.80;;;3.73;;
11964;SDS011;6042;41.326;19.826;2023-04-24T08:06:47;4.37;;;3.20;;
11964;SDS011;6042;41.326;19.826;2023-04-24T08:09:16;4.10;;;2.93;;
11964;SDS011;6042;41.326;19.826;2023-04-24T08:11:46;7.90;;;3.50;;
11964;SDS011;6042;41.326;19.826;2023-04-24T08:14:14;39.80;;;6.63;;
11964;SDS011;6042;41.326;19.826;2023-04-24T08:16:43;5.67;;;2.90;;
11964;SDS011;6042;41.326;19.826;2023-04-24T08:19:11;24.03;;;7.53;;
11964;SDS011;6042;41.326;19.826;2023-04-24T08:21:39;3.30;;;2.67;;
11964;SDS011;6042;41.326;19.826;2023-04-24T08:24:08;2.70;;;2.50;;
11964;SDS011;6042;41.326;19.826;2023-04-24T08:26:36;2.77;;;2.30;;
11964;SDS011;6042;41.326;19.826;2023-04-24T08:29:06;3.17;;;2.60;;
11964;SDS011;6042;41.326;19.826;2023-04-24T08:31:34;8.97;;;3.20;;
11964;SDS011;6042;41.326;19.826;2023-04-24T08:34:03;3.33;;;2.67;;
11964;SDS011;6042;41.326;19.826;2023-04-24T08:36:31;2.67;;;2.47;;
11964;SDS011;6042;41.326;19.826;2023-04-24T08:39:12;2.60;;;2.40;;
11964;SDS011;6042;41.326;19.826;2023-04-24T08:41:41;2.73;;;2.53;;
11964;SDS011;6042;41.326;19.826;2023-04-24T08:44:13;3.83;;;2.40;;
11964;SDS011;6042;41.326;19.826;2023-04-24T08:46:42;3.37;;;2.10;;
11964;SDS011;6042;41.326;19.826;2023-04-24T08:49:12;4.23;;;2.07;;
11964;SDS011;6042;41.326;19.826;2023-04-24T08:51:42;2.57;;;1.90;;
11964;SDS011;6042;41.326;19.826;2023-04-24T08:54:13;4.23;;;2.20;;
11964;SDS011;6042;41.326;19.826;2023-04-24T08:56:42;2.50;;;2.30;;
11964;SDS011;6042;41.326;19.826;2023-04-24T08:59:15;5.57;;;2.53;;
11964;SDS011;6042;41.326;19.826;2023-04-24T09:01:44;23.97;;;5.30;;
11964;SDS011;6042;41.326;19.826;2023-04-24T09:04:14;3.67;;;2.57;;
11964;SDS011;6042;41.326;19.826;2023-04-24T09:06:47;6.00;;;2.87;;
11964;SDS011;6042;41.326;19.826;2023-04-24T09:09:16;4.93;;;2.60;;
11964;SDS011;6042;41.326;19.826;2023-04-24T09:11:45;8.27;;;3.80;;
11964;SDS011;6042;41.326;19.826;2023-04-24T09:14:18;6.90;;;3.20;;
11964;SDS011;6042;41.326;19.826;2023-04-24T09:16:47;6.03;;;2.60;;
11964;SDS011;6042;41.326;19.826;2023-04-24T09:19:16;6.30;;;2.90;;
11964;SDS011;6042;41.326;19.826;2023-04-24T09:21:45;10.90;;;3.17;;
11964;SDS011;6042;41.326;19.826;2023-04-24T09:24:14;3.17;;;2.33;;
11964;SDS011;6042;41.326;19.826;2023-04-24T09:26:44;5.13;;;3.10;;
11964;SDS011;6042;41.326;19.826;2023-04-24T09:29:14;5.73;;;2.60;;
11964;SDS011;6042;41.326;19.826;2023-04-24T09:31:45;4.23;;;2.43;;
11964;SDS011;6042;41.326;19.826;2023-04-24T09:34:14;2.60;;;1.90;;
11964;SDS011;6042;41.326;19.826;2023-04-24T09:36:47;2.33;;;2.13;;
11964;SDS011;6042;41.326;19.826;2023-04-24T09:39:16;4.80;;;2.97;;
11964;SDS011;6042;41.326;19.826;2023-04-24T09:41:47;4.37;;;2.70;;
11964;SDS011;6042;41.326;19.826;2023-04-24T09:44:17;2.47;;;2.07;;
11964;SDS011;6042;41.326;19.826;2023-04-24T09:46:50;2.17;;;2.03;;
11964;SDS011;6042;41.326;19.826;2023-04-24T09:49:21;2.43;;;2.23;;
11964;SDS011;6042;41.326;19.826;2023-04-24T09:51:51;3.53;;;2.13;;
11964;SDS011;6042;41.326;19.826;2023-04-24T09:54:20;2.20;;;2.00;;
11964;SDS011;6042;41.326;19.826;2023-04-24T09:56:50;2.90;;;2.60;;
11964;SDS011;6042;41.326;19.826;2023-04-24T09:59:19;3.47;;;2.70;;
11964;SDS011;6042;41.326;19.826;2023-04-24T10:01:47;4.10;;;2.20;;
11964;SDS011;6042;41.326;19.826;2023-04-24T10:04:20;3.43;;;1.90;;
11964;SDS011;6042;41.326;19.826;2023-04-24T10:06:52;5.13;;;2.10;;
11964;SDS011;6042;41.326;19.826;2023-04-24T10:09:22;4.20;;;2.20;;
11964;SDS011;6042;41.326;19.826;2023-04-24T10:11:53;2.90;;;2.60;;
11964;SDS011;6042;41.326;19.826;2023-04-24T10:14:22;2.50;;;2.30;;
11964;SDS011;6042;41.326;19.826;2023-04-24T10:16:54;3.27;;;2.27;;
11964;SDS011;6042;41.326;19.826;2023-04-24T10:19:25;2.83;;;2.40;;
11964;SDS011;6042;41.326;19.826;2023-04-24T10:21:54;2.93;;;2.40;;
11964;SDS011;6042;41.326;19.826;2023-04-24T10:24:23;2.07;;;1.87;;
11964;SDS011;6042;41.326;19.826;2023-04-24T10:26:52;2.87;;;2.30;;
11964;SDS011;6042;41.326;19.826;2023-04-24T10:29:20;3.37;;;2.53;;
11964;SDS011;6042;41.326;19.826;2023-04-24T10:31:49;3.20;;;1.90;;
11964;SDS011;6042;41.326;19.826;2023-04-24T10:34:19;1.93;;;1.70;;
11964;SDS011;6042;41.326;19.826;2023-04-24T10:36:50;3.10;;;2.07;;
11964;SDS011;6042;41.326;19.826;2023-04-24T10:39:23;4.20;;;2.17;;
11964;SDS011;6042;41.326;19.826;2023-04-24T10:41:53;2.03;;;1.83;;
11964;SDS011;6042;41.326;19.826;2023-04-24T10:44:24;2.00;;;1.90;;
11964;SDS011;6042;41.326;19.826;2023-04-24T10:46:53;2.30;;;1.97;;
11964;SDS011;6042;41.326;19.826;2023-04-24T10:49:28;2.00;;;1.87;;
11964;SDS011;6042;41.326;19.826;2023-04-24T10:52:00;6.73;;;2.43;;
11964;SDS011;6042;41.326;19.826;2023-04-24T10:54:34;4.30;;;2.20;;
11964;SDS011;6042;41.326;19.826;2023-04-24T11:02:45;2.47;;;1.97;;
11964;SDS011;6042;41.326;19.826;2023-04-24T11:05:19;2.00;;;1.80;;
11964;SDS011;6042;41.326;19.826;2023-04-24T11:10:39;2.50;;;2.23;;
11964;SDS011;6042;41.326;19.826;2023-04-24T11:13:14;3.30;;;3.00;;
11964;SDS011;6042;41.326;19.826;2023-04-24T11:15:43;2.60;;;2.13;;
11964;SDS011;6042;41.326;19.826;2023-04-24T11:18:14;2.67;;;2.00;;
11964;SDS011;6042;41.326;19.826;2023-04-24T11:20:44;2.53;;;2.33;;
11964;SDS011;6042;41.326;19.826;2023-04-24T11:23:14;2.73;;;2.43;;
11964;SDS011;6042;41.326;19.826;2023-04-24T11:25:44;3.10;;;2.60;;
11964;SDS011;6042;41.326;19.826;2023-04-24T11:28:14;5.80;;;5.30;;
11964;SDS011;6042;41.326;19.826;2023-04-24T11:30:43;3.07;;;2.33;;
11964;SDS011;6042;41.326;19.826;2023-04-24T11:33:12;3.50;;;2.40;;
11964;SDS011;6042;41.326;19.826;2023-04-24T11:35:50;3.17;;;1.87;;
11964;SDS011;6042;41.326;19.826;2023-04-24T11:38:19;2.90;;;2.57;;
11964;SDS011;6042;41.326;19.826;2023-04-24T11:40:51;2.60;;;2.30;;
11964;SDS011;6042;41.326;19.826;2023-04-24T11:43:20;2.50;;;2.30;;
11964;SDS011;6042;41.326;19.826;2023-04-24T11:45:49;2.43;;;2.23;;
11964;SDS011;6042;41.326;19.826;2023-04-24T11:48:18;2.67;;;2.07;;
11964;SDS011;6042;41.326;19.826;2023-04-24T11:50:51;2.77;;;2.57;;
11964;SDS011;6042;41.326;19.826;2023-04-24T11:53:19;3.00;;;2.60;;
11964;SDS011;6042;41.326;19.826;2023-04-24T11:55:48;3.97;;;2.90;;
11964;SDS011;6042;41.326;19.826;2023-04-24T11:58:20;4.30;;;2.73;;
11964;SDS011;6042;41.326;19.826;2023-04-24T12:00:55;3.63;;;2.90;;
11964;SDS011;6042;41.326;19.826;2023-04-24T12:03:25;3.70;;;2.80;;
11964;SDS011;6042;41.326;19.826;2023-04-24T12:06:05;3.27;;;2.97;;
11964;SDS011;6042;41.326;19.826;2023-04-24T12:08:35;5.40;;;3.17;;
11964;SDS011;6042;41.326;19.826;2023-04-24T12:11:04;4.97;;;3.37;;
11964;SDS011;6042;41.326;19.826;2023-04-24T12:13:34;4.83;;;3.90;;
11964;SDS011;6042;41.326;19.826;2023-04-24T12:16:03;5.80;;;4.23;;
11964;SDS011;6042;41.326;19.826;2023-04-24T12:18:33;5.30;;;3.73;;
11964;SDS011;6042;41.326;19.826;2023-04-24T12:21:19;7.03;;;4.00;;
11964;SDS011;6042;41.326;19.826;2023-04-24T12:23:48;4.60;;;4.07;;
11964;SDS011;6042;41.326;19.826;2023-04-24T12:26:18;13.03;;;3.90;;
11964;SDS011;6042;41.326;19.826;2023-04-24T12:28:48;7.73;;;3.87;;
11964;SDS011;6042;41.326;19.826;2023-04-24T12:31:17;7.93;;;4.03;;
11964;SDS011;6042;41.326;19.826;2023-04-24T12:33:49;6.33;;;3.57;;
11964;SDS011;6042;41.326;19.826;2023-04-24T12:36:20;7.57;;;3.30;;
11964;SDS011;6042;41.326;19.826;2023-04-24T12:38:52;6.40;;;3.60;;
11964;SDS011;6042;41.326;19.826;2023-04-24T12:41:21;5.50;;;3.50;;
11964;SDS011;6042;41.326;19.826;2023-04-24T12:43:50;8.77;;;3.83;;
11964;SDS011;6042;41.326;19.826;2023-04-24T12:46:20;6.50;;;3.40;;
11964;SDS011;6042;41.326;19.826;2023-04-24T12:48:48;6.97;;;3.60;;
11964;SDS011;6042;41.326;19.826;2023-04-24T12:51:18;6.27;;;3.50;;
11964;SDS011;6042;41.326;19.826;2023-04-24T12:53:46;24.83;;;17.90;;
11964;SDS011;6042;41.326;19.826;2023-04-24T12:56:15;6.57;;;3.60;;
11964;SDS011;6042;41.326;19.826;2023-04-24T12:58:43;6.63;;;3.43;;
11964;SDS011;6042;41.326;19.826;2023-04-24T13:01:12;5.63;;;3.00;;
11964;SDS011;6042;41.326;19.826;2023-04-24T13:03:40;6.47;;;2.83;;
11964;SDS011;6042;41.326;19.826;2023-04-24T13:06:09;6.97;;;3.10;;
11964;SDS011;6042;41.326;19.826;2023-04-24T13:08:39;4.13;;;2.00;;
11964;SDS011;6042;41.326;19.826;2023-04-24T13:11:07;5.33;;;2.73;;
11964;SDS011;6042;41.326;19.826;2023-04-24T13:13:36;6.20;;;3.10;;
11964;SDS011;6042;41.326;19.826;2023-04-24T13:16:04;7.97;;;2.93;;
11964;SDS011;6042;41.326;19.826;2023-04-24T13:18:33;7.30;;;2.67;;
11964;SDS011;6042;41.326;19.826;2023-04-24T13:21:01;5.90;;;3.07;;
11964;SDS011;6042;41.326;19.826;2023-04-24T13:23:30;4.77;;;2.30;;
11964;SDS011;6042;41.326;19.826;2023-04-24T13:26:00;5.47;;;2.20;;
11964;SDS011;6042;41.326;19.826;2023-04-24T13:28:28;4.50;;;2.20;;
11964;SDS011;6042;41.326;19.826;2023-04-24T13:30:57;2.90;;;2.10;;
11964;SDS011;6042;41.326;19.826;2023-04-24T13:33:25;4.20;;;2.50;;
11964;SDS011;6042;41.326;19.826;2023-04-24T13:35:54;4.80;;;2.20;;
11964;SDS011;6042;41.326;19.826;2023-04-24T13:38:22;5.47;;;2.50;;
11964;SDS011;6042;41.326;19.826;2023-04-24T13:40:51;6.27;;;3.10;;
11964;SDS011;6042;41.326;19.826;2023-04-24T13:43:21;6.60;;;2.70;;
11964;SDS011;6042;41.326;19.826;2023-04-24T13:45:49;5.80;;;2.47;;
11964;SDS011;6042;41.326;19.826;2023-04-24T13:48:17;6.50;;;2.63;;
11964;SDS011;6042;41.326;19.826;2023-04-24T13:50:47;5.83;;;2.70;;
11964;SDS011;6042;41.326;19.826;2023-04-24T13:53:16;3.57;;;2.30;;
11964;SDS011;6042;41.326;19.826;2023-04-24T13:55:44;4.57;;;2.40;;
11964;SDS011;6042;41.326;19.826;2023-04-24T13:58:13;4.43;;;2.67;;
11964;SDS011;6042;41.326;19.826;2023-04-24T14:00:43;7.53;;;3.20;;
11964;SDS011;6042;41.326;19.826;2023-04-24T14:03:11;4.23;;;3.10;;
11964;SDS011;6042;41.326;19.826;2023-04-24T14:05:40;8.87;;;3.47;;
11964;SDS011;6042;41.326;19.826;2023-04-24T14:08:08;5.70;;;2.73;;
11964;SDS011;6042;41.326;19.826;2023-04-24T14:10:37;8.13;;;3.70;;
11964;SDS011;6042;41.326;19.826;2023-04-24T14:13:05;9.73;;;5.70;;
11964;SDS011;6042;41.326;19.826;2023-04-24T14:15:35;8.60;;;3.30;;
11964;SDS011;6042;41.326;19.826;2023-04-24T14:18:05;4.80;;;3.20;;
11964;SDS011;6042;41.326;19.826;2023-04-24T14:20:33;4.23;;;2.70;;
11964;SDS011;6042;41.326;19.826;2023-04-24T14:23:01;3.60;;;2.43;;
11964;SDS011;6042;41.326;19.826;2023-04-24T14:25:30;6.70;;;3.20;;
11964;SDS011;6042;41.326;19.826;2023-04-24T14:27:59;7.77;;;2.90;;
11964;SDS011;6042;41.326;19.826;2023-04-24T14:30:27;4.83;;;2.33;;
11964;SDS011;6042;41.326;19.826;2023-04-24T14:32:56;6.47;;;3.00;;
11964;SDS011;6042;41.326;19.826;2023-04-24T14:35:26;5.67;;;2.93;;
11964;SDS011;6042;41.326;19.826;2023-04-24T14:37:57;9.67;;;2.87;;
11964;SDS011;6042;41.326;19.826;2023-04-24T14:40:26;5.40;;;3.50;;
11964;SDS011;6042;41.326;19.826;2023-04-24T14:43:15;5.30;;;2.60;;
11964;SDS011;6042;41.326;19.826;2023-04-24T14:45:44;5.80;;;2.70;;
11964;SDS011;6042;41.326;19.826;2023-04-24T14:48:13;5.03;;;2.60;;
11964;SDS011;6042;41.326;19.826;2023-04-24T14:50:44;2.90;;;1.97;;
11964;SDS011;6042;41.326;19.826;2023-04-24T14:53:12;5.73;;;2.80;;
11964;SDS011;6042;41.326;19.826;2023-04-24T14:55:41;7.00;;;2.53;;
11964;SDS011;6042;41.326;19.826;2023-04-24T14:58:10;5.73;;;2.90;;
11964;SDS011;6042;41.326;19.826;2023-04-24T15:00:38;7.60;;;2.67;;
11964;SDS011;6042;41.326;19.826;2023-04-24T15:03:07;4.60;;;2.37;;
11964;SDS011;6042;41.326;19.826;2023-04-24T15:05:36;3.83;;;2.30;;
11964;SDS011;6042;41.326;19.826;2023-04-24T15:08:06;3.90;;;2.43;;
11964;SDS011;6042;41.326;19.826;2023-04-24T15:10:34;6.73;;;2.53;;
11964;SDS011;6042;41.326;19.826;2023-04-24T15:13:03;4.17;;;2.43;;
11964;SDS011;6042;41.326;19.826;2023-04-24T15:15:31;5.47;;;2.43;;